KRAP/RAP METAR and TAF weather

Enter ICAO airport designator
Station Type Date Time Source
KRAP METAR 2022/09/26 09:52 UTC NOAA

KRAP 260952Z AUTO 00000KT 10SM CLR 04/M01 A3021 RMK AO2 SLP225 T00391011 $


Station Type Date Time Source
KRAP Decoded METAR 2022/09/26 09:52 UTC NOAA

RAPID CITY REGIONAL AIRPORT , SD, United States (KRAP) 44-03N 103-03W 965M
Sep 26, 2022 - 05:52 AM EDT / 2022.09.26 0952 UTC
Wind: Calm:0
Visibility: 10 mile(s):0
Sky conditions: clear
Temperature: 39.0 F (3.9 C)
Dew Point: 30.0 F (-1.1 C)
Relative Humidity: 69%
Pressure (altimeter): 30.21 in. Hg (1023 hPa)
ob: KRAP 260952Z AUTO 00000KT 10SM CLR 04/M01 A3021 RMK AO2 SLP225 T00391011
cycle: 10

Station Type Date Time Source
KRAP TAF 2022/09/26 06:22 UTC NOAA

TAF KRAP 260520Z 2606/2706 VRB05KT P6SM SKC
FM261800 35011KT P6SM SKC

Example: see airport list